Time;durP1;ratioP1;P1;durP2;ratioP2;P2;SDS_P1;SDS_P2;PMS_P1;PMS_P2;Temp;Humidity;BMP_temperature;BMP_pressure;BME280_temperature;BME280_humidity;BME280_pressure;Samples;Min_cycle;Max_cycle;Signal;HPM_P1;HPM_P2
2023/07/20 00:02:16;;;;;;;;;4.00;2.67;;;;;;;;5078933;28;9800;-88
2023/07/20 00:04:43;;;;;;;;;2.33;2.33;;;;;;;;5080596;28;9513;-90
2023/07/20 00:07:13;;;;;;;;;3.00;2.00;;;;;;;;5079114;28;9107;-88
2023/07/20 00:09:41;;;;;;;;;2.00;2.00;;;;;;;;5078555;28;9015;-94
2023/07/20 00:12:09;;;;;;;;;3.00;2.67;;;;;;;;5075393;28;8945;-93
2023/07/20 00:14:37;;;;;;;;;2.00;2.00;;;;;;;;5065748;28;9202;-92
2023/07/20 00:17:04;;;;;;;;;2.00;2.00;;;;;;;;5054215;28;9859;-92
2023/07/20 00:19:34;;;;;;;;;2.33;2.33;;;;;;;;5053983;28;9097;-92
2023/07/20 00:22:04;;;;;;;;;2.00;2.00;;;;;;;;5054356;28;9079;-91
2023/07/20 00:24:32;;;;;;;;;1.00;1.00;;;;;;;;5057079;28;9075;-96
2023/07/20 00:27:00;;;;;;;;;4.00;2.67;;;;;;;;5058917;28;9178;-92
2023/07/20 00:29:28;;;;;;;;;2.00;2.00;;;;;;;;5059600;28;9239;-96
2023/07/20 00:31:56;;;;;;;;;2.00;2.00;;;;;;;;5053711;28;9118;-89
2023/07/20 00:34:23;;;;;;;;;2.67;2.67;;;;;;;;5054851;28;9189;-95
2023/07/20 00:36:52;;;;;;;;;2.67;2.00;;;;;;;;5055103;28;9115;-94
2023/07/20 00:39:19;;;;;;;;;2.00;2.00;;;;;;;;5061454;28;9046;-95
2023/07/20 00:41:47;;;;;;;;;3.00;1.00;;;;;;;;5072385;28;9094;-92
2023/07/20 00:44:15;;;;;;;;;2.67;2.67;;;;;;;;5071159;28;9003;-94
2023/07/20 00:46:43;;;;;;;;;2.33;2.33;;;;;;;;5069329;28;9072;-92
2023/07/20 00:49:14;;;;;;;;;2.00;2.00;;;;;;;;5063230;28;9192;-90
2023/07/20 00:51:41;;;;;;;;;2.00;2.00;;;;;;;;5054912;28;9130;-91
2023/07/20 00:54:11;;;;;;;;;2.00;2.00;;;;;;;;5065238;28;9191;-92
2023/07/20 00:56:38;;;;;;;;;2.00;2.00;;;;;;;;5060963;28;9200;-92
2023/07/20 00:59:06;;;;;;;;;3.00;1.33;;;;;;;;5064789;28;9206;-92
2023/07/20 01:01:33;;;;;;;;;2.67;2.67;;;;;;;;5055919;28;9979;-94
2023/07/20 01:04:01;;;;;;;;;4.00;2.33;;;;;;;;5054083;28;10098;-93
2023/07/20 01:06:35;;;;;;;;;2.33;2.33;;;;;;;;5055528;28;9250;-91
2023/07/20 01:09:08;;;;;;;;;3.67;2.00;;;;;;;;5053399;28;9279;-91
2023/07/20 01:11:46;;;;;;;;;2.00;2.00;;;;;;;;5053777;28;9212;-91
2023/07/20 01:14:15;;;;;;;;;3.00;3.00;;;;;;;;5060888;28;9324;-92
2023/07/20 01:16:46;;;;;;;;;2.33;1.67;;;;;;;;5078525;28;9391;-91
2023/07/20 01:19:15;;;;;;;;;2.75;2.75;;;;;;;;5080665;28;9331;-92
2023/07/20 01:21:48;;;;;;;;;3.00;1.00;;;;;;;;5079859;28;9400;-91
2023/07/20 01:24:46;;;;;;;;;2.00;2.00;;;;;;;;5084539;28;9360;-86
2023/07/20 01:27:55;;;;;;;;;1.00;1.00;;;;;;;;5081668;28;9423;-90
2023/07/20 01:30:41;;;;;;;;;1.00;1.00;;;;;;;;5068989;28;9231;-87
2023/07/20 01:33:12;;;;;;;;;3.00;3.00;;;;;;;;5077983;28;9312;-87
2023/07/20 01:35:40;;;;;;;;;3.00;2.00;;;;;;;;5078834;28;9428;-92
2023/07/20 01:38:08;;;;;;;;;3.00;3.00;;;;;;;;5074688;28;9538;-91
2023/07/20 01:40:36;;;;;;;;;3.50;3.50;;;;;;;;5072588;28;9468;-90
2023/07/20 01:43:04;;;;;;;;;2.75;2.75;;;;;;;;5072156;28;9669;-89
2023/07/20 01:45:31;;;;;;;;;3.00;3.00;;;;;;;;5072056;28;9536;-90
2023/07/20 01:47:59;;;;;;;;;3.25;3.00;;;;;;;;5072861;28;9809;-91
2023/07/20 01:50:28;;;;;;;;;4.50;3.50;;;;;;;;5072174;28;9565;-89
2023/07/20 01:52:56;;;;;;;;;2.25;2.25;;;;;;;;5072718;28;9703;-89
2023/07/20 01:55:23;;;;;;;;;2.25;2.25;;;;;;;;5073062;28;9554;-91
2023/07/20 01:57:51;;;;;;;;;2.50;2.50;;;;;;;;5078941;28;9444;-89
2023/07/20 02:00:21;;;;;;;;;2.00;2.00;;;;;;;;5080238;28;10204;-90
2023/07/20 02:02:48;;;;;;;;;5.33;2.00;;;;;;;;5077086;28;9634;-91
2023/07/20 02:05:16;;;;;;;;;2.00;2.00;;;;;;;;5073104;28;10127;-91
2023/07/20 02:07:46;;;;;;;;;0.67;0.67;;;;;;;;5072234;28;9471;-93
2023/07/20 02:10:14;;;;;;;;;1.33;1.33;;;;;;;;5072803;28;9386;-92
2023/07/20 02:12:41;;;;;;;;;2.00;2.00;;;;;;;;5072570;28;9476;-91
2023/07/20 02:15:09;;;;;;;;;2.75;2.75;;;;;;;;5073195;28;9566;-93
2023/07/20 02:17:37;;;;;;;;;2.75;2.00;;;;;;;;5074555;28;9625;-92
2023/07/20 02:20:08;;;;;;;;;4.00;3.00;;;;;;;;5074202;28;9546;-92
2023/07/20 02:22:35;;;;;;;;;2.00;2.00;;;;;;;;5073168;28;9603;-92
2023/07/20 02:25:05;;;;;;;;;1.25;1.25;;;;;;;;5072018;28;9641;-88
2023/07/20 02:27:32;;;;;;;;;3.00;2.00;;;;;;;;5071793;28;9749;-88
2023/07/20 02:30:00;;;;;;;;;2.75;2.00;;;;;;;;5071474;28;9615;-90
2023/07/20 02:32:27;;;;;;;;;2.75;2.50;;;;;;;;5071659;28;9560;-89
2023/07/20 02:34:54;;;;;;;;;2.25;2.25;;;;;;;;5078138;28;9732;-89
2023/07/20 02:37:22;;;;;;;;;2.75;2.75;;;;;;;;5077602;28;9971;-89
2023/07/20 02:40:00;;;;;;;;;1.00;1.00;;;;;;;;5077361;28;9697;-92
2023/07/20 02:42:30;;;;;;;;;2.00;2.00;;;;;;;;5076612;28;9557;-91
2023/07/20 02:44:57;;;;;;;;;2.00;2.00;;;;;;;;5072839;28;9703;-88
2023/07/20 02:47:24;;;;;;;;;3.00;3.00;;;;;;;;5071290;28;9621;-91
2023/07/20 02:49:52;;;;;;;;;4.00;3.00;;;;;;;;5073830;28;9936;-92
2023/07/20 02:52:19;;;;;;;;;2.00;2.00;;;;;;;;5072870;28;9771;-88
2023/07/20 02:54:47;;;;;;;;;3.00;3.00;;;;;;;;5071354;28;9720;-88
2023/07/20 02:57:15;;;;;;;;;2.00;2.00;;;;;;;;5071060;28;9755;-88
2023/07/20 02:59:44;;;;;;;;;2.00;2.00;;;;;;;;5071278;28;9752;-88
2023/07/20 03:02:11;;;;;;;;;2.50;2.50;;;;;;;;5070363;28;9813;-87
2023/07/20 03:04:38;;;;;;;;;4.50;2.75;;;;;;;;5071074;28;9992;-89
2023/07/20 03:07:06;;;;;;;;;2.00;2.00;;;;;;;;5071196;28;10054;-89
2023/07/20 03:09:34;;;;;;;;;3.50;3.00;;;;;;;;5071605;28;9889;-88
2023/07/20 03:12:04;;;;;;;;;1.25;1.25;;;;;;;;5075470;28;10822;-90
2023/07/20 03:14:32;;;;;;;;;3.00;1.75;;;;;;;;5069246;28;9919;-89
2023/07/20 03:17:00;;;;;;;;;1.00;1.00;;;;;;;;5056330;28;10135;-89
2023/07/20 03:19:28;;;;;;;;;5.00;3.00;;;;;;;;5060109;28;9929;-89
2023/07/20 03:21:56;;;;;;;;;4.25;3.00;;;;;;;;5058116;28;9864;-88
2023/07/20 03:24:24;;;;;;;;;2.00;2.00;;;;;;;;5057450;28;9944;-89
2023/07/20 03:26:51;;;;;;;;;4.00;2.25;;;;;;;;5055800;28;9888;-89
2023/07/20 03:29:19;;;;;;;;;3.00;3.00;;;;;;;;5054756;28;9866;-89
2023/07/20 03:31:47;;;;;;;;;2.00;2.00;;;;;;;;5053973;28;9843;-87
2023/07/20 03:34:17;;;;;;;;;4.50;3.00;;;;;;;;5061045;28;9884;-88
2023/07/20 03:36:45;;;;;;;;;4.25;2.50;;;;;;;;5054089;28;9868;-87
2023/07/20 03:39:16;;;;;;;;;4.25;4.25;;;;;;;;5054510;28;9887;-85
2023/07/20 03:41:44;;;;;;;;;2.25;2.25;;;;;;;;5054597;28;9933;-87
2023/07/20 03:44:11;;;;;;;;;3.50;3.00;;;;;;;;5053819;28;10030;-86
2023/07/20 03:46:38;;;;;;;;;3.50;3.50;;;;;;;;5054696;28;9990;-85
2023/07/20 03:49:06;;;;;;;;;2.50;2.50;;;;;;;;5053389;28;9887;-87
2023/07/20 03:51:35;;;;;;;;;2.75;2.75;;;;;;;;5054710;28;9927;-82
2023/07/20 03:54:02;;;;;;;;;2.50;2.50;;;;;;;;5056303;28;9899;-83
2023/07/20 03:56:34;;;;;;;;;6.00;4.25;;;;;;;;5057727;28;9956;-86
2023/07/20 03:59:01;;;;;;;;;4.00;4.00;;;;;;;;5057496;28;9994;-81
2023/07/20 04:01:28;;;;;;;;;3.00;3.00;;;;;;;;5066920;28;9732;-80
2023/07/20 04:03:55;;;;;;;;;4.00;2.00;;;;;;;;5073333;28;9784;-78
2023/07/20 04:06:23;;;;;;;;;2.25;2.25;;;;;;;;5072872;28;9895;-77
2023/07/20 04:08:51;;;;;;;;;3.00;3.00;;;;;;;;5072359;28;9795;-75
2023/07/20 04:11:18;;;;;;;;;4.00;4.00;;;;;;;;5071790;28;9723;-76
2023/07/20 04:13:48;;;;;;;;;3.25;2.00;;;;;;;;5068945;28;9679;-76
2023/07/20 04:16:15;;;;;;;;;3.50;2.00;;;;;;;;5051351;28;9822;-74
2023/07/20 04:18:42;;;;;;;;;2.50;2.50;;;;;;;;5051917;28;9739;-74
2023/07/20 04:21:10;;;;;;;;;3.75;3.75;;;;;;;;5051736;28;9657;-72
2023/07/20 04:23:39;;;;;;;;;3.00;3.00;;;;;;;;5052173;28;9559;-73
2023/07/20 04:26:07;;;;;;;;;2.25;2.25;;;;;;;;5052304;28;9586;-76
2023/07/20 04:28:35;;;;;;;;;3.00;3.00;;;;;;;;5052204;28;9553;-76
2023/07/20 04:31:14;;;;;;;;;2.75;2.75;;;;;;;;5058526;28;9682;-80
2023/07/20 04:33:41;;;;;;;;;3.50;3.50;;;;;;;;5072107;28;9757;-79
2023/07/20 04:36:09;;;;;;;;;4.75;3.50;;;;;;;;5071338;28;9859;-75
2023/07/20 04:38:36;;;;;;;;;3.50;3.50;;;;;;;;5071637;28;9761;-77
2023/07/20 04:41:03;;;;;;;;;5.00;3.75;;;;;;;;5071624;28;9819;-76
2023/07/20 04:43:32;;;;;;;;;3.00;3.00;;;;;;;;5071347;28;9926;-79
2023/07/20 04:45:59;;;;;;;;;3.00;3.00;;;;;;;;5071309;28;9641;-80
2023/07/20 04:48:29;;;;;;;;;4.50;4.50;;;;;;;;5070934;28;9774;-75
2023/07/20 04:50:56;;;;;;;;;4.50;4.50;;;;;;;;5071399;28;9798;-78
2023/07/20 04:53:26;;;;;;;;;4.75;4.00;;;;;;;;5071107;28;9707;-80
2023/07/20 04:55:54;;;;;;;;;4.00;3.00;;;;;;;;5071951;28;9698;-78
2023/07/20 04:58:22;;;;;;;;;5.50;5.50;;;;;;;;5073648;28;9638;-76
2023/07/20 05:00:52;;;;;;;;;5.00;5.00;;;;;;;;5074776;28;9657;-77
2023/07/20 05:03:19;;;;;;;;;4.25;4.25;;;;;;;;5072128;28;9457;-78
2023/07/20 05:05:48;;;;;;;;;4.33;4.33;;;;;;;;5072495;28;9498;-76
2023/07/20 05:08:17;;;;;;;;;4.67;4.67;;;;;;;;5075745;28;9540;-81
2023/07/20 05:10:45;;;;;;;;;8.00;6.67;;;;;;;;5073326;28;9353;-79
2023/07/20 05:13:12;;;;;;;;;7.67;7.00;;;;;;;;5072276;28;9277;-74
2023/07/20 05:15:39;;;;;;;;;6.00;6.00;;;;;;;;5071867;28;9260;-79
2023/07/20 05:18:08;;;;;;;;;7.67;7.67;;;;;;;;5072377;28;9179;-79
2023/07/20 05:20:37;;;;;;;;;8.67;7.33;;;;;;;;5072314;28;9047;-79
2023/07/20 05:23:04;;;;;;;;;6.33;6.33;;;;;;;;5072262;28;9068;-79
2023/07/20 05:25:31;;;;;;;;;9.00;7.33;;;;;;;;5071590;28;8971;-84
2023/07/20 05:27:58;;;;;;;;;7.75;7.25;;;;;;;;5071227;28;8949;-85
2023/07/20 05:30:26;;;;;;;;;8.00;6.50;;;;;;;;5071874;28;8848;-88
2023/07/20 05:32:54;;;;;;;;;7.00;7.00;;;;;;;;5073376;28;8867;-87
2023/07/20 05:35:23;;;;;;;;;8.75;8.75;;;;;;;;5074163;28;8880;-86
2023/07/20 05:37:50;;;;;;;;;6.00;6.00;;;;;;;;5075614;28;8864;-88
2023/07/20 05:40:18;;;;;;;;;7.75;7.75;;;;;;;;5074043;28;9005;-79
2023/07/20 05:42:47;;;;;;;;;11.50;9.50;;;;;;;;5073564;28;9693;-83
2023/07/20 05:45:17;;;;;;;;;10.00;9.75;;;;;;;;5075181;28;8990;-83
2023/07/20 05:47:45;;;;;;;;;9.00;7.75;;;;;;;;5073884;28;8867;-87
2023/07/20 05:50:12;;;;;;;;;9.75;9.75;;;;;;;;5072674;28;8883;-84
2023/07/20 05:52:41;;;;;;;;;8.00;8.00;;;;;;;;5071118;28;8982;-80
2023/07/20 05:55:09;;;;;;;;;7.00;7.00;;;;;;;;5070113;28;8949;-85
2023/07/20 05:57:39;;;;;;;;;13.25;10.25;;;;;;;;5070808;28;8885;-84
2023/07/20 06:00:08;;;;;;;;;11.25;9.75;;;;;;;;5070877;28;8859;-85
2023/07/20 06:02:35;;;;;;;;;11.50;8.25;;;;;;;;5071109;28;8941;-85
2023/07/20 06:05:03;;;;;;;;;10.75;9.00;;;;;;;;5071167;28;8890;-77
2023/07/20 06:07:31;;;;;;;;;9.75;9.75;;;;;;;;5071733;28;8962;-84
2023/07/20 06:09:59;;;;;;;;;9.75;8.50;;;;;;;;5072224;28;8872;-84
2023/07/20 06:12:26;;;;;;;;;13.25;9.50;;;;;;;;5072104;28;8872;-80
2023/07/20 06:14:54;;;;;;;;;9.50;8.75;;;;;;;;5072189;28;8846;-78
2023/07/20 06:17:21;;;;;;;;;9.50;9.50;;;;;;;;5070818;28;8849;-81
2023/07/20 06:19:49;;;;;;;;;10.00;10.00;;;;;;;;5069844;28;8863;-76
2023/07/20 06:22:16;;;;;;;;;14.50;12.25;;;;;;;;5070549;28;9040;-78
2023/07/20 06:24:44;;;;;;;;;11.25;9.25;;;;;;;;5072035;28;8842;-84
2023/07/20 06:27:14;;;;;;;;;10.25;10.25;;;;;;;;5073429;28;8857;-89
2023/07/20 06:29:42;;;;;;;;;14.25;12.75;;;;;;;;5071778;28;8853;-89
2023/07/20 06:32:10;;;;;;;;;10.00;9.25;;;;;;;;5070122;28;8885;-87
2023/07/20 06:34:38;;;;;;;;;12.00;12.00;;;;;;;;5069609;28;8853;-78
2023/07/20 06:37:05;;;;;;;;;11.75;11.00;;;;;;;;5069647;28;8854;-77
2023/07/20 06:39:32;;;;;;;;;10.75;10.75;;;;;;;;5069385;28;8881;-78
2023/07/20 06:42:00;;;;;;;;;10.25;10.25;;;;;;;;5069199;28;8857;-78
2023/07/20 06:44:28;;;;;;;;;12.00;10.25;;;;;;;;5068958;28;8927;-78
2023/07/20 06:46:55;;;;;;;;;15.00;13.00;;;;;;;;5069259;28;8881;-77
2023/07/20 06:49:26;;;;;;;;;11.75;11.75;;;;;;;;5069170;28;8877;-78
2023/07/20 06:51:54;;;;;;;;;13.50;12.50;;;;;;;;5069167;28;8871;-76
2023/07/20 06:54:21;;;;;;;;;11.50;11.50;;;;;;;;5069191;28;8846;-83
2023/07/20 06:56:48;;;;;;;;;14.25;14.25;;;;;;;;5070102;28;9009;-82
2023/07/20 06:59:18;;;;;;;;;10.00;10.00;;;;;;;;5071362;28;8964;-83
2023/07/20 07:01:47;;;;;;;;;13.50;13.50;;;;;;;;5071524;28;8794;-78
2023/07/20 07:04:14;;;;;;;;;14.75;14.75;;;;;;;;5070098;28;8845;-81
2023/07/20 07:06:41;;;;;;;;;11.75;9.50;;;;;;;;5071514;28;9644;-83
2023/07/20 07:09:09;;;;;;;;;16.50;13.50;;;;;;;;5073941;28;9658;-81
2023/07/20 07:11:36;;;;;;;;;13.50;13.50;;;;;;;;5075639;28;8964;-84
2023/07/20 07:14:03;;;;;;;;;12.25;12.25;;;;;;;;5073368;28;8937;-84
2023/07/20 07:16:31;;;;;;;;;8.00;8.00;;;;;;;;5070896;28;8863;-85
2023/07/20 07:18:59;;;;;;;;;15.75;12.75;;;;;;;;5070573;28;8875;-85
2023/07/20 07:21:26;;;;;;;;;15.00;13.75;;;;;;;;5069207;28;8847;-85
2023/07/20 07:23:57;;;;;;;;;9.00;7.00;;;;;;;;5068213;28;8994;-78
2023/07/20 07:26:24;;;;;;;;;12.75;12.75;;;;;;;;5069261;28;8876;-85
2023/07/20 07:28:51;;;;;;;;;13.00;13.00;;;;;;;;5069434;28;8875;-81
2023/07/20 07:31:19;;;;;;;;;13.75;12.50;;;;;;;;5068904;28;8814;-84
2023/07/20 07:33:46;;;;;;;;;12.25;12.25;;;;;;;;5069525;28;8994;-82
2023/07/20 07:36:16;;;;;;;;;11.00;9.25;;;;;;;;5070083;28;9692;-79
2023/07/20 07:38:43;;;;;;;;;11.25;10.75;;;;;;;;5073804;28;8974;-82
2023/07/20 07:41:11;;;;;;;;;14.75;12.00;;;;;;;;5070376;28;8859;-80
2023/07/20 07:43:38;;;;;;;;;9.50;9.25;;;;;;;;5069146;28;8879;-79
2023/07/20 07:46:05;;;;;;;;;11.75;11.75;;;;;;;;5070283;28;8856;-79
2023/07/20 07:48:32;;;;;;;;;9.00;9.00;;;;;;;;5070325;28;8890;-83
2023/07/20 07:51:00;;;;;;;;;12.25;12.25;;;;;;;;5069726;28;9008;-83
2023/07/20 07:53:28;;;;;;;;;14.00;12.25;;;;;;;;5069486;28;9343;-84
2023/07/20 07:55:55;;;;;;;;;12.25;9.75;;;;;;;;5069157;28;8886;-80
2023/07/20 07:58:23;;;;;;;;;10.25;9.50;;;;;;;;5069212;28;8937;-82
2023/07/20 08:00:50;;;;;;;;;10.00;9.75;;;;;;;;5068757;28;8793;-78
2023/07/20 08:03:18;;;;;;;;;11.25;11.25;;;;;;;;5069210;28;8860;-82
2023/07/20 08:05:48;;;;;;;;;12.00;11.75;;;;;;;;5073523;28;8876;-82
2023/07/20 08:08:16;;;;;;;;;12.25;12.00;;;;;;;;5074086;28;9008;-78
2023/07/20 08:10:47;;;;;;;;;11.00;11.00;;;;;;;;5075568;28;8940;-82
2023/07/20 08:13:14;;;;;;;;;10.00;10.00;;;;;;;;5075502;28;8929;-81
2023/07/20 08:15:51;;;;;;;;;11.00;10.50;;;;;;;;5077846;28;8842;-84
2023/07/20 08:18:19;;;;;;;;;13.00;12.50;;;;;;;;5075537;28;8870;-81
2023/07/20 08:20:47;;;;;;;;;10.75;8.00;;;;;;;;5073238;28;8875;-78
2023/07/20 08:23:14;;;;;;;;;10.75;9.75;;;;;;;;5072391;28;8867;-82
2023/07/20 08:25:43;;;;;;;;;9.00;9.00;;;;;;;;5072731;28;8865;-83
2023/07/20 08:28:13;;;;;;;;;11.00;11.00;;;;;;;;5072535;28;8940;-83
2023/07/20 08:30:43;;;;;;;;;12.50;12.50;;;;;;;;5071362;28;8816;-81
2023/07/20 08:33:11;;;;;;;;;12.00;11.50;;;;;;;;5072482;28;8865;-81
2023/07/20 08:35:38;;;;;;;;;9.00;9.00;;;;;;;;5072358;28;8857;-84
2023/07/20 08:38:05;;;;;;;;;9.25;9.25;;;;;;;;5073069;28;8869;-83
2023/07/20 08:40:33;;;;;;;;;7.00;7.00;;;;;;;;5074187;28;8868;-80
2023/07/20 08:43:01;;;;;;;;;9.00;9.00;;;;;;;;5074559;28;8885;-83
2023/07/20 08:45:31;;;;;;;;;11.50;10.25;;;;;;;;5075067;28;8853;-84
2023/07/20 08:47:59;;;;;;;;;11.50;10.50;;;;;;;;5075681;28;8954;-83
2023/07/20 08:50:28;;;;;;;;;10.50;9.25;;;;;;;;5075085;28;8927;-83
2023/07/20 08:52:58;;;;;;;;;13.00;10.50;;;;;;;;5075097;28;8874;-79
2023/07/20 08:55:26;;;;;;;;;10.75;9.25;;;;;;;;5072936;28;8865;-79
2023/07/20 08:57:55;;;;;;;;;12.00;12.00;;;;;;;;5072998;28;8983;-81
2023/07/20 09:00:23;;;;;;;;;10.25;9.00;;;;;;;;5071409;28;8980;-81
2023/07/20 09:02:53;;;;;;;;;10.50;10.25;;;;;;;;5071723;28;8891;-83
2023/07/20 09:05:21;;;;;;;;;9.75;9.75;;;;;;;;5071479;28;8899;-82
2023/07/20 09:07:48;;;;;;;;;12.75;10.00;;;;;;;;5071425;28;8877;-77
2023/07/20 09:10:15;;;;;;;;;8.25;8.25;;;;;;;;5071326;28;8878;-78
2023/07/20 09:12:44;;;;;;;;;8.20;8.20;;;;;;;;5071275;28;8850;-79
2023/07/20 09:15:12;;;;;;;;;8.00;8.00;;;;;;;;5070234;28;8836;-81
2023/07/20 09:17:39;;;;;;;;;7.80;7.60;;;;;;;;5071077;28;8991;-80
2023/07/20 09:20:10;;;;;;;;;10.20;8.60;;;;;;;;5071405;28;8890;-82
2023/07/20 09:22:39;;;;;;;;;8.60;8.60;;;;;;;;5071042;28;9626;-78
2023/07/20 09:25:08;;;;;;;;;8.60;7.40;;;;;;;;5071449;28;9748;-80
2023/07/20 09:27:40;;;;;;;;;5.60;5.60;;;;;;;;5071508;28;8852;-81
2023/07/20 09:30:09;;;;;;;;;8.80;8.20;;;;;;;;5071811;28;8925;-76
2023/07/20 09:32:40;;;;;;;;;7.60;7.60;;;;;;;;5073559;28;8918;-76
2023/07/20 09:35:15;;;;;;;;;10.20;10.20;;;;;;;;5071155;28;8852;-79
2023/07/20 09:37:48;;;;;;;;;7.20;7.20;;;;;;;;5070948;28;8856;-80
2023/07/20 09:40:18;;;;;;;;;7.60;7.60;;;;;;;;5070645;28;8900;-79
2023/07/20 09:42:45;;;;;;;;;7.60;7.60;;;;;;;;5071432;28;8874;-79
2023/07/20 09:45:12;;;;;;;;;8.60;8.60;;;;;;;;5072208;28;8863;-82
2023/07/20 09:47:41;;;;;;;;;9.40;9.20;;;;;;;;5073503;28;8860;-83
2023/07/20 09:50:11;;;;;;;;;9.80;9.80;;;;;;;;5073325;28;8867;-82
2023/07/20 09:52:44;;;;;;;;;14.80;10.80;;;;;;;;5071774;28;8909;-81
2023/07/20 09:55:12;;;;;;;;;8.60;8.60;;;;;;;;5070907;28;8850;-81
2023/07/20 09:57:39;;;;;;;;;9.80;9.40;;;;;;;;5070640;28;8980;-82
2023/07/20 10:00:12;;;;;;;;;10.20;9.00;;;;;;;;5070066;28;8884;-80
2023/07/20 10:02:44;;;;;;;;;2.00;2.00;;;;;;;;5070582;28;8863;-79
2023/07/20 10:05:15;;;;;;;;;7.80;6.60;;;;;;;;5070499;28;8852;-76
2023/07/20 10:07:47;;;;;;;;;11.40;9.60;;;;;;;;5070862;28;8880;-83
2023/07/20 10:10:17;;;;;;;;;8.20;8.20;;;;;;;;5074276;28;8855;-82
2023/07/20 10:12:49;;;;;;;;;9.40;9.40;;;;;;;;5070927;28;8864;-80
2023/07/20 10:15:21;;;;;;;;;7.20;6.80;;;;;;;;5070621;28;8845;-81
2023/07/20 10:17:58;;;;;;;;;10.20;7.20;;;;;;;;5071859;28;8884;-78
2023/07/20 10:20:29;;;;;;;;;9.00;7.80;;;;;;;;5073544;28;8853;-82
2023/07/20 10:22:57;;;;;;;;;6.60;5.00;;;;;;;;5074214;28;9066;-79
2023/07/20 10:25:25;;;;;;;;;10.60;7.80;;;;;;;;5073711;28;8985;-76
2023/07/20 10:27:52;;;;;;;;;8.80;8.80;;;;;;;;5073698;28;8862;-77
2023/07/20 10:30:21;;;;;;;;;6.00;6.00;;;;;;;;5071508;28;9506;-76
2023/07/20 10:32:49;;;;;;;;;7.80;5.20;;;;;;;;5070968;28;8854;-78
2023/07/20 10:35:17;;;;;;;;;14.20;14.20;;;;;;;;5069356;28;9635;-77
2023/07/20 10:38:01;;;;;;;;;5.40;5.40;;;;;;;;5069227;28;9023;-75
2023/07/20 10:40:32;;;;;;;;;6.00;4.60;;;;;;;;5069599;28;8872;-78
2023/07/20 10:43:01;;;;;;;;;3.40;2.60;;;;;;;;5069244;28;8996;-76
2023/07/20 10:45:42;;;;;;;;;3.40;3.40;;;;;;;;5069283;28;8992;-75
2023/07/20 10:48:17;;;;;;;;;0.80;0.80;;;;;;;;5069510;28;8868;-75
2023/07/20 10:50:44;;;;;;;;;0.20;0.20;;;;;;;;5069445;28;8968;-76
2023/07/20 10:53:17;;;;;;;;;0.20;0.20;;;;;;;;5068665;28;9667;-76
2023/07/20 10:55:46;;;;;;;;;1.20;1.20;;;;;;;;5069341;28;8862;-77
2023/07/20 10:58:17;;;;;;;;;1.00;0.60;;;;;;;;5069353;28;8849;-76
2023/07/20 11:01:01;;;;;;;;;0.00;0.00;;;;;;;;5068658;28;8777;-77
2023/07/20 11:03:29;;;;;;;;;1.00;1.00;;;;;;;;5068658;28;9700;-76
2023/07/20 11:05:58;;;;;;;;;0.00;0.00;;;;;;;;5069157;28;8857;-76
2023/07/20 11:08:43;;;;;;;;;0.60;0.60;;;;;;;;5069277;28;8975;-77
2023/07/20 11:11:23;;;;;;;;;1.00;1.00;;;;;;;;5068723;28;8976;-75
2023/07/20 11:13:57;;;;;;;;;2.00;2.00;;;;;;;;5068867;28;8836;-75
2023/07/20 11:16:42;;;;;;;;;0.20;0.20;;;;;;;;5068999;28;8883;-77
2023/07/20 11:19:16;;;;;;;;;1.80;1.80;;;;;;;;5070058;28;8840;-75
2023/07/20 11:21:45;;;;;;;;;0.80;0.80;;;;;;;;5069288;28;8871;-78
2023/07/20 11:24:14;;;;;;;;;1.40;1.40;;;;;;;;5069038;28;8856;-79
2023/07/20 11:26:45;;;;;;;;;0.00;0.00;;;;;;;;5069262;28;8967;-76
2023/07/20 11:29:13;;;;;;;;;0.20;0.20;;;;;;;;5068968;28;8882;-79
2023/07/20 11:31:41;;;;;;;;;0.40;0.40;;;;;;;;5068876;28;8814;-75
2023/07/20 11:34:13;;;;;;;;;0.00;0.00;;;;;;;;5069527;28;8893;-76
2023/07/20 11:36:42;;;;;;;;;0.00;0.00;;;;;;;;5069557;28;8928;-78
2023/07/20 11:39:10;;;;;;;;;2.00;1.00;;;;;;;;5070667;28;8872;-78
2023/07/20 11:41:39;;;;;;;;;1.00;1.00;;;;;;;;5073193;28;8886;-75
2023/07/20 11:44:07;;;;;;;;;0.00;0.00;;;;;;;;5073090;28;8879;-75
2023/07/20 11:46:35;;;;;;;;;0.00;0.00;;;;;;;;5073417;28;8926;-78
2023/07/20 11:49:04;;;;;;;;;1.00;1.00;;;;;;;;5072776;28;8902;-79
2023/07/20 11:51:31;;;;;;;;;1.00;1.00;;;;;;;;5073055;28;8855;-80
2023/07/20 11:53:59;;;;;;;;;0.60;0.60;;;;;;;;5073176;28;8873;-78
2023/07/20 11:56:27;;;;;;;;;2.00;1.00;;;;;;;;5073890;28;8913;-76
2023/07/20 11:59:00;;;;;;;;;1.20;1.20;;;;;;;;5075571;28;8882;-88
2023/07/20 12:01:29;;;;;;;;;1.00;1.00;;;;;;;;5075109;28;8800;-81
2023/07/20 12:03:57;;;;;;;;;1.00;1.00;;;;;;;;5076998;28;8997;-90
2023/07/20 12:06:26;;;;;;;;;0.00;0.00;;;;;;;;5073235;28;9639;-84
2023/07/20 12:08:57;;;;;;;;;1.00;1.00;;;;;;;;5074890;28;8975;-83
2023/07/20 12:11:34;;;;;;;;;1.00;1.00;;;;;;;;5075734;28;8875;-83
2023/07/20 12:14:04;;;;;;;;;2.00;2.00;;;;;;;;5075108;28;8845;-76
2023/07/20 12:16:32;;;;;;;;;0.80;0.80;;;;;;;;5073403;28;8857;-85
2023/07/20 12:19:03;;;;;;;;;0.80;0.80;;;;;;;;5073667;28;8861;-90
2023/07/20 12:21:30;;;;;;;;;1.00;1.00;;;;;;;;5072436;28;8865;-78
2023/07/20 12:23:58;;;;;;;;;0.40;0.40;;;;;;;;5072576;28;8949;-83
2023/07/20 12:26:26;;;;;;;;;3.00;3.00;;;;;;;;5072034;28;8841;-83
2023/07/20 12:28:55;;;;;;;;;2.40;1.00;;;;;;;;5072651;28;8869;-81
2023/07/20 12:31:24;;;;;;;;;3.00;3.00;;;;;;;;5071801;28;9564;-82
2023/07/20 12:33:51;;;;;;;;;1.20;1.20;;;;;;;;5072514;28;8987;-86
2023/07/20 12:36:19;;;;;;;;;1.20;1.20;;;;;;;;5071918;28;9648;-77
2023/07/20 12:38:47;;;;;;;;;1.80;1.80;;;;;;;;5072465;28;8842;-83
2023/07/20 12:41:15;;;;;;;;;1.60;1.60;;;;;;;;5072355;28;8861;-83
2023/07/20 12:43:42;;;;;;;;;1.00;1.00;;;;;;;;5072577;28;8972;-90
2023/07/20 12:46:11;;;;;;;;;1.00;1.00;;;;;;;;5074428;28;8842;-81
2023/07/20 12:48:41;;;;;;;;;3.00;1.40;;;;;;;;5077485;28;8873;-86
2023/07/20 12:51:09;;;;;;;;;2.00;2.00;;;;;;;;5076745;28;8877;-82
2023/07/20 12:53:36;;;;;;;;;1.00;1.00;;;;;;;;5079386;28;8935;-81
2023/07/20 12:56:04;;;;;;;;;1.40;1.40;;;;;;;;5074559;28;8865;-78
2023/07/20 12:58:31;;;;;;;;;0.00;0.00;;;;;;;;5073440;28;8861;-83
2023/07/20 13:00:58;;;;;;;;;1.80;1.00;;;;;;;;5073269;28;8836;-84
2023/07/20 13:03:26;;;;;;;;;1.00;1.00;;;;;;;;5072401;28;8876;-78
2023/07/20 13:05:54;;;;;;;;;0.00;0.00;;;;;;;;5072065;28;8853;-86
2023/07/20 13:08:25;;;;;;;;;1.80;1.00;;;;;;;;5072002;28;8853;-82
2023/07/20 13:10:52;;;;;;;;;1.00;1.00;;;;;;;;5071778;28;8842;-81
2023/07/20 13:13:19;;;;;;;;;1.00;1.00;;;;;;;;5071530;28;8922;-82
2023/07/20 13:15:47;;;;;;;;;1.00;1.00;;;;;;;;5071764;28;8840;-82
2023/07/20 13:18:18;;;;;;;;;1.20;1.20;;;;;;;;5071492;28;8871;-89
2023/07/20 13:20:45;;;;;;;;;2.00;0.00;;;;;;;;5072122;28;9654;-87
2023/07/20 13:23:18;;;;;;;;;1.00;1.00;;;;;;;;5072180;28;8856;-89
2023/07/20 13:25:45;;;;;;;;;2.00;1.40;;;;;;;;5072706;28;8878;-91
2023/07/20 13:28:12;;;;;;;;;1.00;1.00;;;;;;;;5077174;28;8883;-86
2023/07/20 13:30:40;;;;;;;;;1.80;1.80;;;;;;;;5076523;28;8919;-92
2023/07/20 13:33:07;;;;;;;;;2.00;1.20;;;;;;;;5081226;28;8847;-74
2023/07/20 13:35:34;;;;;;;;;0.80;0.80;;;;;;;;5081366;28;8890;-89
2023/07/20 13:38:03;;;;;;;;;2.20;2.20;;;;;;;;5079429;28;8840;-92
2023/07/20 13:40:32;;;;;;;;;0.60;0.60;;;;;;;;5076254;28;8875;-86
2023/07/20 13:43:00;;;;;;;;;0.00;0.00;;;;;;;;5073279;28;9002;-84
2023/07/20 13:45:27;;;;;;;;;1.00;1.00;;;;;;;;5071951;28;9288;-87
2023/07/20 13:47:54;;;;;;;;;1.80;1.00;;;;;;;;5071612;28;8855;-86
2023/07/20 13:50:21;;;;;;;;;3.00;1.40;;;;;;;;5071459;28;8864;-80
2023/07/20 13:52:48;;;;;;;;;0.00;0.00;;;;;;;;5070667;28;8951;-82
2023/07/20 13:55:18;;;;;;;;;1.40;1.40;;;;;;;;5070490;28;8970;-80
2023/07/20 13:57:48;;;;;;;;;0.60;0.60;;;;;;;;5069995;28;9658;-78
2023/07/20 14:00:16;;;;;;;;;1.00;1.00;;;;;;;;5069599;28;8870;-82
2023/07/20 14:02:43;;;;;;;;;1.80;1.80;;;;;;;;5069979;28;8844;-80
2023/07/20 14:05:11;;;;;;;;;0.60;0.60;;;;;;;;5070356;28;8848;-79
2023/07/20 14:07:39;;;;;;;;;0.00;0.00;;;;;;;;5072275;28;8852;-80
2023/07/20 14:10:07;;;;;;;;;1.00;1.00;;;;;;;;5073874;28;8871;-79
2023/07/20 14:12:34;;;;;;;;;1.60;0.00;;;;;;;;5070262;28;8886;-74
2023/07/20 14:15:03;;;;;;;;;0.00;0.00;;;;;;;;5069608;28;8849;-75
2023/07/20 14:17:30;;;;;;;;;0.80;0.80;;;;;;;;5069640;28;8854;-77
2023/07/20 14:19:58;;;;;;;;;0.00;0.00;;;;;;;;5069624;28;8865;-73
2023/07/20 14:22:25;;;;;;;;;0.00;0.00;;;;;;;;5069660;28;8864;-77
2023/07/20 14:24:52;;;;;;;;;0.20;0.20;;;;;;;;5069782;28;8854;-79
2023/07/20 14:27:19;;;;;;;;;0.00;0.00;;;;;;;;5069566;28;8903;-76
2023/07/20 14:29:46;;;;;;;;;0.00;0.00;;;;;;;;5069995;28;8867;-80
2023/07/20 14:32:15;;;;;;;;;0.80;0.80;;;;;;;;5071239;28;8782;-74
2023/07/20 14:34:43;;;;;;;;;1.00;1.00;;;;;;;;5072412;28;8861;-81
2023/07/20 14:37:10;;;;;;;;;1.00;1.00;;;;;;;;5070814;28;8850;-79
2023/07/20 14:39:37;;;;;;;;;2.00;0.20;;;;;;;;5070118;28;8845;-74
2023/07/20 14:42:05;;;;;;;;;1.00;1.00;;;;;;;;5070510;28;8850;-81
2023/07/20 14:44:33;;;;;;;;;0.00;0.00;;;;;;;;5069599;28;8865;-80
2023/07/20 14:47:01;;;;;;;;;0.20;0.20;;;;;;;;5071873;28;8834;-81
2023/07/20 14:49:29;;;;;;;;;0.00;0.00;;;;;;;;5074026;28;8895;-80
2023/07/20 14:51:56;;;;;;;;;0.40;0.40;;;;;;;;5070339;28;8869;-80
2023/07/20 14:54:23;;;;;;;;;0.00;0.00;;;;;;;;5069770;28;8991;-79
2023/07/20 14:56:52;;;;;;;;;0.00;0.00;;;;;;;;5069229;28;8989;-80
2023/07/20 14:59:20;;;;;;;;;0.00;0.00;;;;;;;;5070033;28;8880;-81
2023/07/20 15:01:47;;;;;;;;;0.20;0.20;;;;;;;;5069296;28;8790;-81